sensor_id;sensor_type;location;lat;lon;timestamp;P1;durP1;ratioP1;P2;durP2;ratioP2
65863;SDS011;52639;51.180;20.460;2023-05-21T00:03:40;49.40;;;22.92;;
65863;SDS011;52639;51.180;20.460;2023-05-21T00:07:48;54.38;;;23.25;;
65863;SDS011;52639;51.180;20.460;2023-05-21T00:11:55;46.30;;;22.42;;
65863;SDS011;52639;51.180;20.460;2023-05-21T00:16:04;47.40;;;23.02;;
65863;SDS011;52639;51.180;20.460;2023-05-21T00:20:12;43.15;;;20.55;;
65863;SDS011;52639;51.180;20.460;2023-05-21T00:24:21;41.30;;;20.17;;
65863;SDS011;52639;51.180;20.460;2023-05-21T00:28:43;36.75;;;17.60;;
65863;SDS011;52639;51.180;20.460;2023-05-21T00:32:47;39.03;;;18.70;;
65863;SDS011;52639;51.180;20.460;2023-05-21T00:36:53;34.63;;;17.38;;
65863;SDS011;52639;51.180;20.460;2023-05-21T00:40:58;31.08;;;17.30;;
65863;SDS011;52639;51.180;20.460;2023-05-21T00:45:03;35.28;;;16.70;;
65863;SDS011;52639;51.180;20.460;2023-05-21T00:49:08;34.60;;;16.92;;
65863;SDS011;52639;51.180;20.460;2023-05-21T00:53:13;29.65;;;15.73;;
65863;SDS011;52639;51.180;20.460;2023-05-21T00:57:19;38.78;;;18.05;;
65863;SDS011;52639;51.180;20.460;2023-05-21T01:01:24;28.60;;;14.68;;
65863;SDS011;52639;51.180;20.460;2023-05-21T01:05:28;31.50;;;16.38;;
65863;SDS011;52639;51.180;20.460;2023-05-21T01:09:34;27.70;;;14.60;;
65863;SDS011;52639;51.180;20.460;2023-05-21T01:13:38;27.55;;;13.85;;
65863;SDS011;52639;51.180;20.460;2023-05-21T01:17:42;27.27;;;15.40;;
65863;SDS011;52639;51.180;20.460;2023-05-21T01:21:48;26.75;;;14.15;;
65863;SDS011;52639;51.180;20.460;2023-05-21T01:25:54;23.20;;;13.90;;
65863;SDS011;52639;51.180;20.460;2023-05-21T01:29:57;26.50;;;13.82;;
65863;SDS011;52639;51.180;20.460;2023-05-21T01:34:01;18.83;;;11.55;;
65863;SDS011;52639;51.180;20.460;2023-05-21T01:38:11;23.35;;;11.88;;
65863;SDS011;52639;51.180;20.460;2023-05-21T01:42:19;21.95;;;12.57;;
65863;SDS011;52639;51.180;20.460;2023-05-21T01:46:25;18.40;;;11.35;;
65863;SDS011;52639;51.180;20.460;2023-05-21T01:50:33;18.65;;;9.77;;
65863;SDS011;52639;51.180;20.460;2023-05-21T01:54:39;16.02;;;10.38;;
65863;SDS011;52639;51.180;20.460;2023-05-21T01:58:50;15.52;;;9.68;;
65863;SDS011;52639;51.180;20.460;2023-05-21T02:02:53;17.80;;;11.48;;
65863;SDS011;52639;51.180;20.460;2023-05-21T02:06:56;20.13;;;11.90;;
65863;SDS011;52639;51.180;20.460;2023-05-21T02:11:02;21.48;;;11.35;;
65863;SDS011;52639;51.180;20.460;2023-05-21T02:15:07;20.52;;;10.48;;
65863;SDS011;52639;51.180;20.460;2023-05-21T02:19:10;20.00;;;11.48;;
65863;SDS011;52639;51.180;20.460;2023-05-21T02:23:14;21.52;;;12.90;;
65863;SDS011;52639;51.180;20.460;2023-05-21T02:27:17;21.65;;;12.30;;
65863;SDS011;52639;51.180;20.460;2023-05-21T02:31:22;23.02;;;12.18;;
65863;SDS011;52639;51.180;20.460;2023-05-21T02:35:25;19.95;;;11.40;;
65863;SDS011;52639;51.180;20.460;2023-05-21T02:39:28;25.33;;;11.52;;
65863;SDS011;52639;51.180;20.460;2023-05-21T02:43:31;19.58;;;11.13;;
65863;SDS011;52639;51.180;20.460;2023-05-21T02:47:36;21.98;;;10.52;;
65863;SDS011;52639;51.180;20.460;2023-05-21T02:51:39;17.73;;;10.80;;
65863;SDS011;52639;51.180;20.460;2023-05-21T02:55:43;21.83;;;10.80;;
65863;SDS011;52639;51.180;20.460;2023-05-21T02:59:46;20.10;;;10.43;;
65863;SDS011;52639;51.180;20.460;2023-05-21T03:03:50;28.52;;;12.48;;
65863;SDS011;52639;51.180;20.460;2023-05-21T03:07:54;26.27;;;12.77;;
65863;SDS011;52639;51.180;20.460;2023-05-21T03:11:57;22.15;;;10.73;;
65863;SDS011;52639;51.180;20.460;2023-05-21T03:16:00;21.70;;;10.95;;
65863;SDS011;52639;51.180;20.460;2023-05-21T03:20:05;14.05;;;9.05;;
65863;SDS011;52639;51.180;20.460;2023-05-21T03:24:16;12.45;;;8.20;;
65863;SDS011;52639;51.180;20.460;2023-05-21T03:28:19;12.10;;;7.80;;
65863;SDS011;52639;51.180;20.460;2023-05-21T03:32:22;11.02;;;6.13;;
65863;SDS011;52639;51.180;20.460;2023-05-21T03:36:27;12.35;;;8.48;;
65863;SDS011;52639;51.180;20.460;2023-05-21T03:40:29;18.75;;;12.93;;
65863;SDS011;52639;51.180;20.460;2023-05-21T03:44:33;21.33;;;12.68;;
65863;SDS011;52639;51.180;20.460;2023-05-21T03:48:36;12.48;;;7.88;;
65863;SDS011;52639;51.180;20.460;2023-05-21T03:52:41;11.10;;;7.55;;
65863;SDS011;52639;51.180;20.460;2023-05-21T03:56:44;10.90;;;5.70;;
65863;SDS011;52639;51.180;20.460;2023-05-21T04:00:46;9.27;;;5.90;;
65863;SDS011;52639;51.180;20.460;2023-05-21T04:04:49;9.95;;;6.47;;
65863;SDS011;52639;51.180;20.460;2023-05-21T04:08:55;7.35;;;5.15;;
65863;SDS011;52639;51.180;20.460;2023-05-21T04:12:58;7.60;;;4.65;;
65863;SDS011;52639;51.180;20.460;2023-05-21T04:17:01;13.23;;;7.68;;
65863;SDS011;52639;51.180;20.460;2023-05-21T04:21:06;20.42;;;12.88;;
65863;SDS011;52639;51.180;20.460;2023-05-21T04:25:14;15.45;;;9.20;;
65863;SDS011;52639;51.180;20.460;2023-05-21T04:29:17;10.70;;;6.15;;
65863;SDS011;52639;51.180;20.460;2023-05-21T04:33:21;10.93;;;5.90;;
65863;SDS011;52639;51.180;20.460;2023-05-21T04:37:25;7.47;;;4.68;;
65863;SDS011;52639;51.180;20.460;2023-05-21T04:41:31;9.85;;;4.45;;
65863;SDS011;52639;51.180;20.460;2023-05-21T04:45:35;7.57;;;4.10;;
65863;SDS011;52639;51.180;20.460;2023-05-21T04:49:38;6.72;;;3.67;;
65863;SDS011;52639;51.180;20.460;2023-05-21T04:53:43;7.50;;;3.50;;
65863;SDS011;52639;51.180;20.460;2023-05-21T04:57:49;6.82;;;3.47;;
65863;SDS011;52639;51.180;20.460;2023-05-21T05:01:52;7.38;;;3.13;;
65863;SDS011;52639;51.180;20.460;2023-05-21T05:05:55;6.43;;;3.05;;
65863;SDS011;52639;51.180;20.460;2023-05-21T05:09:58;7.90;;;3.50;;
65863;SDS011;52639;51.180;20.460;2023-05-21T05:14:03;4.97;;;2.95;;
65863;SDS011;52639;51.180;20.460;2023-05-21T05:18:09;5.30;;;3.05;;
65863;SDS011;52639;51.180;20.460;2023-05-21T05:22:12;4.30;;;2.90;;
65863;SDS011;52639;51.180;20.460;2023-05-21T05:26:15;5.95;;;3.33;;
65863;SDS011;52639;51.180;20.460;2023-05-21T05:30:20;4.25;;;2.95;;
65863;SDS011;52639;51.180;20.460;2023-05-21T05:34:23;5.70;;;3.00;;
65863;SDS011;52639;51.180;20.460;2023-05-21T05:38:30;9.13;;;3.15;;
65863;SDS011;52639;51.180;20.460;2023-05-21T05:42:35;6.32;;;3.10;;
65863;SDS011;52639;51.180;20.460;2023-05-21T05:46:43;4.55;;;2.80;;
65863;SDS011;52639;51.180;20.460;2023-05-21T05:50:48;6.22;;;2.72;;
65863;SDS011;52639;51.180;20.460;2023-05-21T05:54:54;11.00;;;5.70;;
65863;SDS011;52639;51.180;20.460;2023-05-21T05:59:00;6.25;;;2.75;;
65863;SDS011;52639;51.180;20.460;2023-05-21T06:03:10;5.72;;;3.33;;
65863;SDS011;52639;51.180;20.460;2023-05-21T06:07:15;5.63;;;3.67;;
65863;SDS011;52639;51.180;20.460;2023-05-21T06:11:19;3.88;;;2.42;;
65863;SDS011;52639;51.180;20.460;2023-05-21T06:15:28;4.43;;;2.70;;
65863;SDS011;52639;51.180;20.460;2023-05-21T06:19:47;6.97;;;3.00;;
65863;SDS011;52639;51.180;20.460;2023-05-21T06:23:50;4.95;;;2.75;;
65863;SDS011;52639;51.180;20.460;2023-05-21T06:27:53;5.00;;;2.78;;
65863;SDS011;52639;51.180;20.460;2023-05-21T06:31:57;4.78;;;2.55;;
65863;SDS011;52639;51.180;20.460;2023-05-21T06:36:03;3.22;;;2.30;;
65863;SDS011;52639;51.180;20.460;2023-05-21T06:40:08;5.72;;;2.50;;
65863;SDS011;52639;51.180;20.460;2023-05-21T06:44:11;3.58;;;2.42;;
65863;SDS011;52639;51.180;20.460;2023-05-21T06:48:15;4.13;;;1.98;;
65863;SDS011;52639;51.180;20.460;2023-05-21T06:52:19;5.22;;;2.50;;
65863;SDS011;52639;51.180;20.460;2023-05-21T06:56:22;4.97;;;2.50;;
65863;SDS011;52639;51.180;20.460;2023-05-21T07:00:26;4.60;;;2.40;;
65863;SDS011;52639;51.180;20.460;2023-05-21T07:04:31;7.65;;;2.85;;
65863;SDS011;52639;51.180;20.460;2023-05-21T07:08:36;5.57;;;2.80;;
65863;SDS011;52639;51.180;20.460;2023-05-21T07:12:39;8.02;;;4.75;;
65863;SDS011;52639;51.180;20.460;2023-05-21T07:16:42;6.00;;;2.55;;
65863;SDS011;52639;51.180;20.460;2023-05-21T07:20:45;8.65;;;6.05;;
65863;SDS011;52639;51.180;20.460;2023-05-21T07:24:50;7.13;;;3.58;;
65863;SDS011;52639;51.180;20.460;2023-05-21T07:28:54;7.00;;;3.38;;
65863;SDS011;52639;51.180;20.460;2023-05-21T07:33:00;6.45;;;2.33;;
65863;SDS011;52639;51.180;20.460;2023-05-21T07:37:08;4.55;;;2.30;;
65863;SDS011;52639;51.180;20.460;2023-05-21T07:41:16;7.03;;;2.33;;
65863;SDS011;52639;51.180;20.460;2023-05-21T07:45:19;5.65;;;2.50;;
65863;SDS011;52639;51.180;20.460;2023-05-21T07:49:22;5.43;;;2.30;;
65863;SDS011;52639;51.180;20.460;2023-05-21T07:53:25;7.82;;;2.13;;
65863;SDS011;52639;51.180;20.460;2023-05-21T08:02:56;4.28;;;2.10;;
65863;SDS011;52639;51.180;20.460;2023-05-21T08:07:03;5.53;;;2.13;;
65863;SDS011;52639;51.180;20.460;2023-05-21T08:11:09;4.63;;;2.42;;
65863;SDS011;52639;51.180;20.460;2023-05-21T08:15:14;4.65;;;2.10;;
65863;SDS011;52639;51.180;20.460;2023-05-21T08:19:20;5.93;;;2.15;;
65863;SDS011;52639;51.180;20.460;2023-05-21T08:23:30;6.18;;;2.33;;
65863;SDS011;52639;51.180;20.460;2023-05-21T08:27:49;5.10;;;1.85;;
65863;SDS011;52639;51.180;20.460;2023-05-21T08:31:56;2.28;;;1.88;;
65863;SDS011;52639;51.180;20.460;2023-05-21T08:36:03;4.50;;;2.33;;
65863;SDS011;52639;51.180;20.460;2023-05-21T08:40:08;6.03;;;2.47;;
65863;SDS011;52639;51.180;20.460;2023-05-21T08:44:53;4.83;;;2.10;;
65863;SDS011;52639;51.180;20.460;2023-05-21T08:49:43;3.92;;;2.13;;
65863;SDS011;52639;51.180;20.460;2023-05-21T08:53:54;3.22;;;2.10;;
65863;SDS011;52639;51.180;20.460;2023-05-21T08:58:03;4.05;;;2.10;;
65863;SDS011;52639;51.180;20.460;2023-05-21T09:02:07;5.35;;;2.10;;
65863;SDS011;52639;51.180;20.460;2023-05-21T09:06:12;5.15;;;2.50;;
65863;SDS011;52639;51.180;20.460;2023-05-21T09:11:05;6.35;;;2.80;;
65863;SDS011;52639;51.180;20.460;2023-05-21T09:15:27;4.88;;;2.40;;
65863;SDS011;52639;51.180;20.460;2023-05-21T09:19:32;4.18;;;2.35;;
65863;SDS011;52639;51.180;20.460;2023-05-21T09:23:35;10.50;;;2.55;;
65863;SDS011;52639;51.180;20.460;2023-05-21T09:27:43;6.53;;;2.22;;
65863;SDS011;52639;51.180;20.460;2023-05-21T09:31:46;5.95;;;2.50;;
65863;SDS011;52639;51.180;20.460;2023-05-21T09:36:07;3.67;;;2.40;;
65863;SDS011;52639;51.180;20.460;2023-05-21T09:40:14;4.50;;;1.98;;
65863;SDS011;52639;51.180;20.460;2023-05-21T09:44:20;5.82;;;2.42;;
65863;SDS011;52639;51.180;20.460;2023-05-21T09:48:33;3.85;;;2.10;;
65863;SDS011;52639;51.180;20.460;2023-05-21T09:52:37;5.43;;;2.28;;
65863;SDS011;52639;51.180;20.460;2023-05-21T09:56:45;6.95;;;2.60;;
65863;SDS011;52639;51.180;20.460;2023-05-21T10:02:01;5.13;;;2.35;;
65863;SDS011;52639;51.180;20.460;2023-05-21T10:06:17;5.75;;;2.78;;
65863;SDS011;52639;51.180;20.460;2023-05-21T10:10:22;5.55;;;2.70;;
65863;SDS011;52639;51.180;20.460;2023-05-21T10:14:26;4.55;;;2.67;;
65863;SDS011;52639;51.180;20.460;2023-05-21T10:18:33;3.92;;;2.38;;
65863;SDS011;52639;51.180;20.460;2023-05-21T10:22:42;7.43;;;2.90;;
65863;SDS011;52639;51.180;20.460;2023-05-21T10:26:47;5.68;;;2.70;;
65863;SDS011;52639;51.180;20.460;2023-05-21T10:30:54;6.60;;;2.90;;
65863;SDS011;52639;51.180;20.460;2023-05-21T10:34:58;4.15;;;2.63;;
65863;SDS011;52639;51.180;20.460;2023-05-21T10:39:03;5.00;;;2.72;;
65863;SDS011;52639;51.180;20.460;2023-05-21T10:43:12;4.53;;;2.72;;
65863;SDS011;52639;51.180;20.460;2023-05-21T10:47:39;4.50;;;2.50;;
65863;SDS011;52639;51.180;20.460;2023-05-21T10:52:02;5.40;;;2.60;;
65863;SDS011;52639;51.180;20.460;2023-05-21T10:56:16;3.65;;;2.47;;
65863;SDS011;52639;51.180;20.460;2023-05-21T11:00:25;5.05;;;2.65;;
65863;SDS011;52639;51.180;20.460;2023-05-21T11:04:31;6.68;;;2.85;;
65863;SDS011;52639;51.180;20.460;2023-05-21T11:08:41;4.93;;;2.75;;
65863;SDS011;52639;51.180;20.460;2023-05-21T11:13:05;5.30;;;2.63;;
65863;SDS011;52639;51.180;20.460;2023-05-21T11:17:10;4.35;;;2.60;;
65863;SDS011;52639;51.180;20.460;2023-05-21T11:21:15;5.22;;;3.15;;
65863;SDS011;52639;51.180;20.460;2023-05-21T11:25:20;6.38;;;3.00;;
65863;SDS011;52639;51.180;20.460;2023-05-21T11:29:30;4.80;;;2.85;;
65863;SDS011;52639;51.180;20.460;2023-05-21T11:33:40;4.10;;;2.58;;
65863;SDS011;52639;51.180;20.460;2023-05-21T11:37:43;6.45;;;2.95;;
65863;SDS011;52639;51.180;20.460;2023-05-21T11:46:00;4.13;;;2.70;;
65863;SDS011;52639;51.180;20.460;2023-05-21T11:50:04;5.15;;;2.63;;
65863;SDS011;52639;51.180;20.460;2023-05-21T11:54:13;6.20;;;2.83;;
65863;SDS011;52639;51.180;20.460;2023-05-21T11:58:19;5.65;;;2.90;;
65863;SDS011;52639;51.180;20.460;2023-05-21T12:02:23;4.68;;;2.63;;
65863;SDS011;52639;51.180;20.460;2023-05-21T12:06:27;4.32;;;2.88;;
65863;SDS011;52639;51.180;20.460;2023-05-21T12:10:36;4.30;;;2.58;;
65863;SDS011;52639;51.180;20.460;2023-05-21T12:14:43;4.82;;;3.03;;
65863;SDS011;52639;51.180;20.460;2023-05-21T12:18:47;3.83;;;2.55;;
65863;SDS011;52639;51.180;20.460;2023-05-21T12:22:52;5.60;;;2.50;;
65863;SDS011;52639;51.180;20.460;2023-05-21T12:26:55;3.72;;;2.55;;
65863;SDS011;52639;51.180;20.460;2023-05-21T12:31:02;8.55;;;2.45;;
65863;SDS011;52639;51.180;20.460;2023-05-21T12:35:06;3.13;;;2.00;;
65863;SDS011;52639;51.180;20.460;2023-05-21T12:39:09;5.35;;;2.70;;
65863;SDS011;52639;51.180;20.460;2023-05-21T12:43:15;3.30;;;2.10;;
65863;SDS011;52639;51.180;20.460;2023-05-21T12:47:24;4.03;;;2.15;;
65863;SDS011;52639;51.180;20.460;2023-05-21T12:51:41;3.90;;;2.53;;
65863;SDS011;52639;51.180;20.460;2023-05-21T12:55:49;2.88;;;2.10;;
65863;SDS011;52639;51.180;20.460;2023-05-21T12:59:56;3.42;;;2.10;;
65863;SDS011;52639;51.180;20.460;2023-05-21T13:04:04;3.20;;;2.05;;
65863;SDS011;52639;51.180;20.460;2023-05-21T13:08:11;6.45;;;2.17;;
65863;SDS011;52639;51.180;20.460;2023-05-21T13:12:16;5.10;;;2.72;;
65863;SDS011;52639;51.180;20.460;2023-05-21T13:16:23;6.10;;;2.28;;
65863;SDS011;52639;51.180;20.460;2023-05-21T13:20:29;4.18;;;2.00;;
65863;SDS011;52639;51.180;20.460;2023-05-21T13:24:34;4.70;;;1.95;;
65863;SDS011;52639;51.180;20.460;2023-05-21T13:28:39;3.85;;;1.98;;
65863;SDS011;52639;51.180;20.460;2023-05-21T13:32:43;3.97;;;2.22;;
65863;SDS011;52639;51.180;20.460;2023-05-21T13:36:49;5.95;;;2.20;;
65863;SDS011;52639;51.180;20.460;2023-05-21T13:41:09;3.33;;;2.13;;
65863;SDS011;52639;51.180;20.460;2023-05-21T13:45:30;4.55;;;1.80;;
65863;SDS011;52639;51.180;20.460;2023-05-21T13:49:34;8.43;;;2.28;;
65863;SDS011;52639;51.180;20.460;2023-05-21T13:53:39;2.92;;;1.83;;
65863;SDS011;52639;51.180;20.460;2023-05-21T13:57:42;4.25;;;2.08;;
65863;SDS011;52639;51.180;20.460;2023-05-21T14:01:47;2.63;;;2.03;;
65863;SDS011;52639;51.180;20.460;2023-05-21T14:10:21;4.30;;;2.00;;
65863;SDS011;52639;51.180;20.460;2023-05-21T14:14:26;4.35;;;2.08;;
65863;SDS011;52639;51.180;20.460;2023-05-21T14:18:30;4.53;;;2.15;;
65863;SDS011;52639;51.180;20.460;2023-05-21T14:22:33;3.50;;;2.13;;
65863;SDS011;52639;51.180;20.460;2023-05-21T14:26:38;4.38;;;2.00;;
65863;SDS011;52639;51.180;20.460;2023-05-21T14:30:42;3.15;;;2.00;;
65863;SDS011;52639;51.180;20.460;2023-05-21T14:34:44;4.22;;;2.10;;
65863;SDS011;52639;51.180;20.460;2023-05-21T14:38:48;3.70;;;2.20;;
65863;SDS011;52639;51.180;20.460;2023-05-21T14:42:57;6.68;;;2.75;;
65863;SDS011;52639;51.180;20.460;2023-05-21T14:47:22;4.60;;;2.15;;
65863;SDS011;52639;51.180;20.460;2023-05-21T14:51:26;4.60;;;2.60;;
65863;SDS011;52639;51.180;20.460;2023-05-21T14:55:29;4.38;;;2.40;;
65863;SDS011;52639;51.180;20.460;2023-05-21T14:59:34;7.13;;;2.50;;
65863;SDS011;52639;51.180;20.460;2023-05-21T15:03:37;4.85;;;2.28;;
65863;SDS011;52639;51.180;20.460;2023-05-21T15:07:40;3.70;;;2.15;;
65863;SDS011;52639;51.180;20.460;2023-05-21T15:11:43;4.65;;;2.35;;
65863;SDS011;52639;51.180;20.460;2023-05-21T15:15:47;3.55;;;2.00;;
65863;SDS011;52639;51.180;20.460;2023-05-21T15:19:51;4.78;;;2.50;;
65863;SDS011;52639;51.180;20.460;2023-05-21T15:23:53;4.43;;;2.17;;
65863;SDS011;52639;51.180;20.460;2023-05-21T15:27:56;6.82;;;2.30;;
65863;SDS011;52639;51.180;20.460;2023-05-21T15:32:01;3.20;;;2.10;;
65863;SDS011;52639;51.180;20.460;2023-05-21T15:36:05;8.10;;;2.40;;
65863;SDS011;52639;51.180;20.460;2023-05-21T15:40:09;3.63;;;2.38;;
65863;SDS011;52639;51.180;20.460;2023-05-21T15:44:15;7.13;;;2.70;;
65863;SDS011;52639;51.180;20.460;2023-05-21T15:48:19;3.40;;;2.20;;
65863;SDS011;52639;51.180;20.460;2023-05-21T15:52:22;4.68;;;2.67;;
65863;SDS011;52639;51.180;20.460;2023-05-21T15:56:27;4.65;;;2.70;;
65863;SDS011;52639;51.180;20.460;2023-05-21T16:00:30;4.90;;;2.55;;
65863;SDS011;52639;51.180;20.460;2023-05-21T16:04:35;5.65;;;2.63;;
65863;SDS011;52639;51.180;20.460;2023-05-21T16:08:39;7.78;;;2.90;;
65863;SDS011;52639;51.180;20.460;2023-05-21T16:12:42;4.45;;;2.63;;
65863;SDS011;52639;51.180;20.460;2023-05-21T16:16:45;5.95;;;2.92;;
65863;SDS011;52639;51.180;20.460;2023-05-21T16:20:49;5.40;;;2.90;;
65863;SDS011;52639;51.180;20.460;2023-05-21T16:24:53;5.90;;;2.40;;
65863;SDS011;52639;51.180;20.460;2023-05-21T16:28:56;5.70;;;2.63;;
65863;SDS011;52639;51.180;20.460;2023-05-21T16:33:01;4.15;;;2.08;;
65863;SDS011;52639;51.180;20.460;2023-05-21T16:37:07;4.20;;;2.72;;
65863;SDS011;52639;51.180;20.460;2023-05-21T16:41:10;7.32;;;2.55;;
65863;SDS011;52639;51.180;20.460;2023-05-21T16:45:18;3.58;;;2.55;;
65863;SDS011;52639;51.180;20.460;2023-05-21T16:49:23;7.05;;;2.72;;
65863;SDS011;52639;51.180;20.460;2023-05-21T16:57:52;3.95;;;2.60;;
65863;SDS011;52639;51.180;20.460;2023-05-21T17:02:00;6.90;;;2.33;;
65863;SDS011;52639;51.180;20.460;2023-05-21T17:06:03;5.13;;;2.58;;
65863;SDS011;52639;51.180;20.460;2023-05-21T17:10:08;5.63;;;2.20;;
65863;SDS011;52639;51.180;20.460;2023-05-21T17:14:15;5.30;;;3.28;;
65863;SDS011;52639;51.180;20.460;2023-05-21T17:18:21;11.50;;;6.50;;
65863;SDS011;52639;51.180;20.460;2023-05-21T17:22:24;23.67;;;8.18;;
65863;SDS011;52639;51.180;20.460;2023-05-21T17:26:29;16.00;;;6.05;;
65863;SDS011;52639;51.180;20.460;2023-05-21T17:30:32;10.18;;;3.75;;
65863;SDS011;52639;51.180;20.460;2023-05-21T17:34:36;30.48;;;10.60;;
65863;SDS011;52639;51.180;20.460;2023-05-21T17:38:40;51.20;;;14.13;;
65863;SDS011;52639;51.180;20.460;2023-05-21T17:42:58;25.13;;;8.07;;
65863;SDS011;52639;51.180;20.460;2023-05-21T17:47:05;16.10;;;8.83;;
65863;SDS011;52639;51.180;20.460;2023-05-21T17:51:09;15.27;;;8.63;;
65863;SDS011;52639;51.180;20.460;2023-05-21T17:55:13;23.70;;;12.55;;
65863;SDS011;52639;51.180;20.460;2023-05-21T17:59:20;47.70;;;21.83;;
65863;SDS011;52639;51.180;20.460;2023-05-21T18:03:23;8.73;;;4.10;;
65863;SDS011;52639;51.180;20.460;2023-05-21T18:07:26;9.48;;;5.03;;
65863;SDS011;52639;51.180;20.460;2023-05-21T18:11:29;10.45;;;6.20;;
65863;SDS011;52639;51.180;20.460;2023-05-21T18:15:34;7.65;;;4.13;;
65863;SDS011;52639;51.180;20.460;2023-05-21T18:19:37;5.38;;;3.05;;
65863;SDS011;52639;51.180;20.460;2023-05-21T18:23:41;7.45;;;3.75;;
65863;SDS011;52639;51.180;20.460;2023-05-21T18:27:44;5.70;;;3.00;;
65863;SDS011;52639;51.180;20.460;2023-05-21T18:31:49;4.55;;;2.78;;
65863;SDS011;52639;51.180;20.460;2023-05-21T18:35:56;6.10;;;3.13;;
65863;SDS011;52639;51.180;20.460;2023-05-21T18:39:59;7.25;;;3.00;;
65863;SDS011;52639;51.180;20.460;2023-05-21T18:44:05;4.57;;;3.03;;
65863;SDS011;52639;51.180;20.460;2023-05-21T18:48:13;7.15;;;3.45;;
65863;SDS011;52639;51.180;20.460;2023-05-21T18:52:18;6.32;;;3.50;;
65863;SDS011;52639;51.180;20.460;2023-05-21T18:56:21;10.80;;;4.43;;
65863;SDS011;52639;51.180;20.460;2023-05-21T19:00:24;6.15;;;3.78;;
65863;SDS011;52639;51.180;20.460;2023-05-21T19:04:29;8.45;;;3.97;;
65863;SDS011;52639;51.180;20.460;2023-05-21T19:08:32;7.15;;;3.97;;
65863;SDS011;52639;51.180;20.460;2023-05-21T19:12:37;7.50;;;3.80;;
65863;SDS011;52639;51.180;20.460;2023-05-21T19:16:42;6.18;;;3.58;;
65863;SDS011;52639;51.180;20.460;2023-05-21T19:20:46;7.25;;;3.40;;
65863;SDS011;52639;51.180;20.460;2023-05-21T19:24:50;8.32;;;3.70;;
65863;SDS011;52639;51.180;20.460;2023-05-21T19:28:53;6.40;;;3.55;;
65863;SDS011;52639;51.180;20.460;2023-05-21T19:32:56;5.40;;;3.72;;
65863;SDS011;52639;51.180;20.460;2023-05-21T19:37:01;5.65;;;3.85;;
65863;SDS011;52639;51.180;20.460;2023-05-21T19:41:04;6.93;;;4.03;;
65863;SDS011;52639;51.180;20.460;2023-05-21T19:45:08;9.25;;;4.97;;
65863;SDS011;52639;51.180;20.460;2023-05-21T19:49:13;19.67;;;10.95;;
65863;SDS011;52639;51.180;20.460;2023-05-21T19:53:17;16.63;;;9.65;;
65863;SDS011;52639;51.180;20.460;2023-05-21T19:57:21;13.40;;;8.68;;
65863;SDS011;52639;51.180;20.460;2023-05-21T20:01:24;18.85;;;11.25;;
65863;SDS011;52639;51.180;20.460;2023-05-21T20:05:28;13.98;;;9.07;;
65863;SDS011;52639;51.180;20.460;2023-05-21T20:09:33;14.05;;;7.93;;
65863;SDS011;52639;51.180;20.460;2023-05-21T20:13:36;13.13;;;6.95;;
65863;SDS011;52639;51.180;20.460;2023-05-21T20:17:39;13.90;;;6.05;;
65863;SDS011;52639;51.180;20.460;2023-05-21T20:21:44;12.10;;;5.57;;
65863;SDS011;52639;51.180;20.460;2023-05-21T20:25:49;8.98;;;4.97;;
65863;SDS011;52639;51.180;20.460;2023-05-21T20:29:52;8.50;;;4.50;;
65863;SDS011;52639;51.180;20.460;2023-05-21T20:33:55;6.50;;;4.38;;
65863;SDS011;52639;51.180;20.460;2023-05-21T20:37:58;7.82;;;4.53;;
65863;SDS011;52639;51.180;20.460;2023-05-21T20:42:03;9.93;;;4.97;;
65863;SDS011;52639;51.180;20.460;2023-05-21T20:46:10;7.25;;;4.80;;
65863;SDS011;52639;51.180;20.460;2023-05-21T20:50:13;9.52;;;5.22;;
65863;SDS011;52639;51.180;20.460;2023-05-21T20:54:17;11.98;;;5.85;;
65863;SDS011;52639;51.180;20.460;2023-05-21T20:58:23;10.15;;;5.25;;
65863;SDS011;52639;51.180;20.460;2023-05-21T21:02:26;11.90;;;4.82;;
65863;SDS011;52639;51.180;20.460;2023-05-21T21:06:29;8.40;;;5.45;;
65863;SDS011;52639;51.180;20.460;2023-05-21T21:10:32;7.72;;;4.72;;
65863;SDS011;52639;51.180;20.460;2023-05-21T21:14:36;8.25;;;4.53;;
65863;SDS011;52639;51.180;20.460;2023-05-21T21:18:39;8.77;;;5.60;;
65863;SDS011;52639;51.180;20.460;2023-05-21T21:22:42;6.93;;;4.53;;
65863;SDS011;52639;51.180;20.460;2023-05-21T21:26:45;7.30;;;4.90;;
65863;SDS011;52639;51.180;20.460;2023-05-21T21:30:49;11.18;;;4.53;;
65863;SDS011;52639;51.180;20.460;2023-05-21T21:34:52;9.88;;;5.07;;
65863;SDS011;52639;51.180;20.460;2023-05-21T21:38:54;8.65;;;5.00;;
65863;SDS011;52639;51.180;20.460;2023-05-21T21:42:57;8.27;;;5.03;;
65863;SDS011;52639;51.180;20.460;2023-05-21T21:47:02;9.90;;;5.72;;
65863;SDS011;52639;51.180;20.460;2023-05-21T21:51:05;11.70;;;5.60;;
65863;SDS011;52639;51.180;20.460;2023-05-21T21:55:09;8.18;;;4.95;;
65863;SDS011;52639;51.180;20.460;2023-05-21T21:59:12;9.15;;;4.80;;
65863;SDS011;52639;51.180;20.460;2023-05-21T22:03:16;7.97;;;4.63;;
65863;SDS011;52639;51.180;20.460;2023-05-21T22:07:20;12.05;;;5.97;;
65863;SDS011;52639;51.180;20.460;2023-05-21T22:11:23;7.95;;;5.07;;
65863;SDS011;52639;51.180;20.460;2023-05-21T22:15:28;7.60;;;4.93;;
65863;SDS011;52639;51.180;20.460;2023-05-21T22:19:33;9.05;;;5.13;;
65863;SDS011;52639;51.180;20.460;2023-05-21T22:23:36;8.43;;;4.38;;
65863;SDS011;52639;51.180;20.460;2023-05-21T22:27:39;8.45;;;5.60;;
65863;SDS011;52639;51.180;20.460;2023-05-21T22:31:42;10.38;;;5.85;;
65863;SDS011;52639;51.180;20.460;2023-05-21T22:35:47;8.88;;;5.95;;
65863;SDS011;52639;51.180;20.460;2023-05-21T22:39:50;9.80;;;5.85;;
65863;SDS011;52639;51.180;20.460;2023-05-21T22:43:53;11.80;;;7.00;;
65863;SDS011;52639;51.180;20.460;2023-05-21T22:47:56;8.63;;;5.55;;
65863;SDS011;52639;51.180;20.460;2023-05-21T22:52:03;9.07;;;5.45;;
65863;SDS011;52639;51.180;20.460;2023-05-21T22:56:06;8.85;;;4.68;;
65863;SDS011;52639;51.180;20.460;2023-05-21T23:00:10;9.57;;;5.75;;
65863;SDS011;52639;51.180;20.460;2023-05-21T23:04:13;11.77;;;6.22;;
65863;SDS011;52639;51.180;20.460;2023-05-21T23:08:18;12.07;;;5.85;;
65863;SDS011;52639;51.180;20.460;2023-05-21T23:12:21;10.48;;;6.50;;
65863;SDS011;52639;51.180;20.460;2023-05-21T23:16:24;13.27;;;7.38;;
65863;SDS011;52639;51.180;20.460;2023-05-21T23:20:27;9.35;;;6.72;;
65863;SDS011;52639;51.180;20.460;2023-05-21T23:24:31;12.88;;;7.50;;
65863;SDS011;52639;51.180;20.460;2023-05-21T23:28:36;16.45;;;9.43;;
65863;SDS011;52639;51.180;20.460;2023-05-21T23:32:39;16.75;;;7.45;;
65863;SDS011;52639;51.180;20.460;2023-05-21T23:36:42;13.32;;;7.03;;
65863;SDS011;52639;51.180;20.460;2023-05-21T23:40:46;12.80;;;6.72;;
65863;SDS011;52639;51.180;20.460;2023-05-21T23:44:49;12.20;;;6.70;;
65863;SDS011;52639;51.180;20.460;2023-05-21T23:48:52;13.77;;;6.72;;
65863;SDS011;52639;51.180;20.460;2023-05-21T23:52:55;9.80;;;5.22;;
65863;SDS011;52639;51.180;20.460;2023-05-21T23:56:59;9.50;;;5.45;;
